Time;durP1;ratioP1;P1;durP2;ratioP2;P2;SDS_P1;SDS_P2;PMS_P1;PMS_P2;Temp;Humidity;BMP_temperature;BMP_pressure;BME280_temperature;BME280_humidity;BME280_pressure;Samples;Min_cycle;Max_cycle;Signal;HPM_P1;HPM_P2
2022/09/15 00:02:13;;;;;;;25.80;19.47;;;17.30;99.90;;;;;;2585242;54;21029;31
2022/09/15 00:04:47;;;;;;;21.40;17.75;;;17.30;99.90;;;;;;2585167;54;20093;31
2022/09/15 00:07:23;;;;;;;19.90;16.65;;;17.30;99.90;;;;;;2585492;54;20050;31
2022/09/15 00:09:57;;;;;;;20.85;15.55;;;17.30;99.90;;;;;;2585125;54;20861;31
2022/09/15 00:12:32;;;;;;;23.25;17.17;;;17.30;99.90;;;;;;2585404;54;20022;31
2022/09/15 00:15:08;;;;;;;21.47;16.90;;;17.20;99.90;;;;;;2585501;54;20027;31
2022/09/15 00:17:43;;;;;;;21.77;16.33;;;17.30;99.90;;;;;;2584237;54;20030;31
2022/09/15 00:20:18;;;;;;;22.15;17.50;;;17.20;99.90;;;;;;2585321;54;20917;31
2022/09/15 00:22:51;;;;;;;23.08;16.00;;;17.30;99.90;;;;;;2585404;54;20037;31
2022/09/15 00:25:25;;;;;;;19.98;15.55;;;17.30;99.90;;;;;;2603643;46;20850;31
2022/09/15 00:27:59;;;;;;;20.00;15.90;;;17.30;99.90;;;;;;2585259;54;20137;31
2022/09/15 00:30:33;;;;;;;24.08;18.55;;;17.30;99.90;;;;;;2584283;54;20462;31
2022/09/15 00:33:12;;;;;;;16.02;14.13;;;17.20;99.90;;;;;;2584155;54;20972;31
2022/09/15 00:35:46;;;;;;;15.20;10.90;;;17.20;99.90;;;;;;2603748;46;20180;31
2022/09/15 00:38:20;;;;;;;14.75;12.13;;;17.30;99.90;;;;;;2683136;39;20452;31
2022/09/15 00:40:55;;;;;;;15.77;13.05;;;17.20;99.90;;;;;;2585480;54;20128;31
2022/09/15 00:43:46;;;;;;;15.65;12.20;;;17.20;99.90;;;;;;2585343;54;20034;31
2022/09/15 00:46:20;;;;;;;16.10;12.52;;;17.20;99.90;;;;;;2603831;47;20826;31
2022/09/15 00:48:59;;;;;;;12.20;10.40;;;17.10;99.90;;;;;;2585413;54;20089;31
2022/09/15 00:51:37;;;;;;;13.40;10.83;;;17.10;99.90;;;;;;2588107;47;20047;31
2022/09/15 00:54:14;;;;;;;13.73;12.20;;;17.00;99.90;;;;;;2585091;54;20130;31
2022/09/15 00:56:46;;;;;;;15.10;12.43;;;17.00;99.90;;;;;;2701928;39;22259;31
2022/09/15 00:59:21;;;;;;;16.00;12.33;;;17.00;99.90;;;;;;2585452;54;20896;31
2022/09/15 01:02:01;;;;;;;15.70;13.70;;;17.00;99.90;;;;;;2585478;54;20952;31
2022/09/15 01:04:38;;;;;;;12.70;11.30;;;17.00;99.90;;;;;;2585218;54;20887;31
2022/09/15 01:07:12;;;;;;;16.43;13.53;;;17.00;99.90;;;;;;2603586;47;20934;31
2022/09/15 01:09:47;;;;;;;16.47;13.00;;;17.00;99.90;;;;;;2683219;39;22232;31
2022/09/15 01:12:21;;;;;;;17.03;13.50;;;16.90;99.90;;;;;;2683802;39;20435;31
2022/09/15 01:14:55;;;;;;;18.83;14.00;;;17.00;99.90;;;;;;2604315;46;21335;31
2022/09/15 01:17:35;;;;;;;13.07;10.68;;;16.90;99.90;;;;;;2585768;54;20026;31
2022/09/15 01:20:39;;;;;;;14.55;13.05;;;17.00;99.90;;;;;;2586098;54;20930;31
2022/09/15 01:23:39;;;;;;;17.50;14.85;;;16.90;99.90;;;;;;2585662;54;20991;31
2022/09/15 01:26:32;;;;;;;16.15;13.70;;;16.90;99.90;;;;;;2683945;39;20456;31
2022/09/15 01:29:35;;;;;;;24.50;17.85;;;17.00;99.90;;;;;;2585558;54;20145;31
2022/09/15 01:34:58;;;;;;;16.10;13.77;;;17.00;99.90;;;;;;2585838;54;20792;31
2022/09/15 01:37:34;;;;;;;17.00;14.65;;;17.00;99.90;;;;;;2604251;46;20320;31
2022/09/15 01:40:09;;;;;;;21.47;17.97;;;17.00;99.90;;;;;;2585748;54;20060;31
2022/09/15 01:42:42;;;;;;;26.48;17.98;;;17.00;99.90;;;;;;2585135;54;20266;31
2022/09/15 01:45:19;;;;;;;20.80;18.58;;;17.00;99.90;;;;;;2585857;54;20057;31
2022/09/15 01:47:51;;;;;;;26.30;20.05;;;16.90;99.90;;;;;;2585635;54;20223;31
2022/09/15 01:50:30;;;;;;;22.95;19.77;;;16.90;99.90;;;;;;2585828;54;20102;31
2022/09/15 01:53:05;;;;;;;25.65;21.45;;;16.90;99.90;;;;;;2585855;54;20953;31
2022/09/15 01:55:40;;;;;;;24.92;20.35;;;17.00;99.90;;;;;;2586056;54;22445;31
2022/09/15 01:58:13;;;;;;;32.35;25.17;;;16.90;99.90;;;;;;2604718;46;20959;31
2022/09/15 02:00:50;;;;;;;32.25;24.30;;;16.90;99.90;;;;;;2683836;39;20316;31
2022/09/15 02:03:25;;;;;;;31.48;25.33;;;16.90;99.90;;;;;;2585997;54;20954;31
2022/09/15 02:06:04;;;;;;;27.77;24.10;;;16.80;99.90;;;;;;2584849;54;20854;31
2022/09/15 02:08:41;;;;;;;27.30;22.60;;;16.80;99.90;;;;;;2585475;54;20945;31
2022/09/15 02:11:17;;;;;;;27.30;22.40;;;16.80;99.90;;;;;;2585659;54;20029;31
2022/09/15 02:13:56;;;;;;;35.67;24.42;;;16.70;99.90;;;;;;2585775;54;20022;31
2022/09/15 02:16:29;;;;;;;30.85;23.30;;;16.70;99.90;;;;;;2702122;39;22321;31
2022/09/15 02:19:10;;;;;;;27.63;21.90;;;16.80;99.90;;;;;;2585795;54;21232;31
2022/09/15 02:21:52;;;;;;;31.25;22.23;;;16.70;99.90;;;;;;2586062;54;20048;31
2022/09/15 02:24:31;;;;;;;33.70;24.70;;;16.70;99.90;;;;;;2585709;54;20027;31
2022/09/15 02:27:05;;;;;;;28.70;23.23;;;16.50;99.90;;;;;;2585813;54;20849;31
2022/09/15 02:29:39;;;;;;;26.20;21.58;;;16.60;99.90;;;;;;2584752;54;20971;31
2022/09/15 02:32:11;;;;;;;31.30;24.60;;;16.50;99.90;;;;;;2585973;54;22404;31
2022/09/15 02:34:47;;;;;;;26.25;22.67;;;16.50;99.90;;;;;;2585666;54;20022;31
2022/09/15 02:37:23;;;;;;;27.80;22.58;;;16.50;99.90;;;;;;2585761;54;20026;31
2022/09/15 02:39:57;;;;;;;31.58;22.65;;;16.50;99.90;;;;;;2585763;54;20921;31
2022/09/15 02:42:31;;;;;;;34.05;22.40;;;16.40;99.90;;;;;;2585501;54;21020;31
2022/09/15 02:45:05;;;;;;;27.58;21.17;;;16.40;99.90;;;;;;2586009;54;20872;31
2022/09/15 02:47:39;;;;;;;28.35;20.80;;;16.30;99.90;;;;;;2603767;46;20128;31
2022/09/15 02:52:43;;;;;;;22.85;15.75;;;16.20;99.90;;;;;;2585985;54;21225;31
2022/09/15 02:55:15;;;;;;;;;;;16.10;99.90;;;;;;2585927;54;20878;31
2022/09/15 02:57:48;;;;;;;20.70;13.30;;;16.00;99.90;;;;;;2585738;54;20797;31
2022/09/15 03:00:22;;;;;;;14.73;10.03;;;16.00;99.90;;;;;;2585477;54;20034;31
2022/09/15 03:02:56;;;;;;;13.67;8.30;;;15.90;99.90;;;;;;2585758;54;20238;31
2022/09/15 03:05:31;;;;;;;15.50;7.20;;;15.90;99.90;;;;;;2604248;46;20105;31
2022/09/15 03:08:07;;;;;;;14.90;6.10;;;15.80;99.90;;;;;;2585786;54;20851;31
2022/09/15 03:10:40;;;;;;;14.63;7.43;;;15.70;99.90;;;;;;2585705;54;20950;31
2022/09/15 03:13:14;;;;;;;13.73;7.45;;;15.70;99.90;;;;;;2585689;54;20030;31
2022/09/15 03:15:48;;;;;;;17.50;7.50;;;15.60;99.90;;;;;;2585604;54;21050;31
2022/09/15 03:18:22;;;;;;;13.40;7.35;;;15.60;99.90;;;;;;2585599;54;21022;31
2022/09/15 03:20:58;;;;;;;15.75;7.45;;;15.60;99.90;;;;;;2585381;54;20049;31
2022/09/15 03:23:33;;;;;;;11.02;6.50;;;15.50;99.90;;;;;;2585800;54;20917;31
2022/09/15 03:26:09;;;;;;;16.23;8.93;;;15.50;99.90;;;;;;2585812;54;20031;31
2022/09/15 03:28:42;;;;;;;14.03;7.57;;;15.50;99.90;;;;;;2585388;54;20097;31
2022/09/15 03:31:15;;;;;;;13.15;7.20;;;15.50;99.90;;;;;;2585780;54;20034;31
2022/09/15 03:33:49;;;;;;;11.75;5.60;;;15.50;99.90;;;;;;2584620;54;20927;31
2022/09/15 03:36:25;;;;;;;9.17;5.77;;;15.50;99.90;;;;;;2585850;54;20049;31
2022/09/15 03:38:57;;;;;;;16.98;6.15;;;15.50;99.90;;;;;;2604038;46;20026;31
2022/09/15 03:41:33;;;;;;;11.52;6.18;;;15.50;99.90;;;;;;2585667;54;20780;31
2022/09/15 03:44:06;;;;;;;14.65;5.88;;;15.40;99.90;;;;;;2603669;46;20991;31
2022/09/15 03:46:40;;;;;;;11.60;6.00;;;15.40;99.90;;;;;;2585761;54;20941;31
2022/09/15 03:49:13;;;;;;;10.50;5.53;;;15.50;99.90;;;;;;2585299;54;20050;31
2022/09/15 03:51:47;;;;;;;13.88;6.05;;;15.40;99.90;;;;;;2585369;54;20026;31
2022/09/15 03:54:21;;;;;;;16.33;7.18;;;15.40;99.90;;;;;;2585487;54;20075;31
2022/09/15 03:56:58;;;;;;;16.85;6.90;;;15.40;99.90;;;;;;2585303;54;20093;31
2022/09/15 03:59:32;;;;;;;14.52;8.30;;;15.40;99.90;;;;;;2585322;54;20848;31
2022/09/15 04:02:06;;;;;;;17.13;8.27;;;15.40;99.90;;;;;;2585316;54;20952;31
2022/09/15 04:04:40;;;;;;;10.13;7.28;;;15.40;99.90;;;;;;2585450;54;20862;31
2022/09/15 04:07:14;;;;;;;10.83;6.67;;;15.40;99.90;;;;;;2683657;39;22340;31
2022/09/15 04:09:48;;;;;;;13.10;6.15;;;15.40;99.90;;;;;;2585390;54;20897;31
2022/09/15 04:12:21;;;;;;;12.13;6.18;;;15.40;99.90;;;;;;2585529;54;19935;31
2022/09/15 04:14:58;;;;;;;13.13;5.93;;;15.40;99.90;;;;;;2585587;54;20930;31
2022/09/15 04:17:32;;;;;;;11.50;5.80;;;15.30;99.90;;;;;;2603720;46;20026;31
2022/09/15 04:20:04;;;;;;;14.20;5.15;;;15.40;99.90;;;;;;2603693;46;22487;31
2022/09/15 04:22:37;;;;;;;14.23;4.78;;;15.30;99.90;;;;;;2603517;46;20068;31
2022/09/15 04:25:11;;;;;;;11.48;4.65;;;15.30;99.90;;;;;;2585096;54;20947;31
2022/09/15 04:27:46;;;;;;;14.18;5.75;;;15.30;99.90;;;;;;2585159;54;20908;31
2022/09/15 04:30:23;;;;;;;9.73;5.45;;;15.20;99.90;;;;;;2585227;54;20022;31
2022/09/15 04:32:56;;;;;;;12.47;6.87;;;15.20;99.90;;;;;;2603659;46;20951;31
2022/09/15 04:35:30;;;;;;;17.17;8.32;;;15.20;99.90;;;;;;2603481;46;20113;31
2022/09/15 04:38:04;;;;;;;16.10;7.35;;;15.20;99.90;;;;;;2603612;46;20841;31
2022/09/15 04:40:37;;;;;;;12.00;7.68;;;15.20;99.90;;;;;;2585115;54;21031;31
2022/09/15 04:43:10;;;;;;;22.40;10.93;;;15.20;99.90;;;;;;2585531;54;20042;31
2022/09/15 04:45:45;;;;;;;18.25;10.00;;;15.20;99.90;;;;;;2585601;54;20046;31
2022/09/15 04:48:19;;;;;;;20.90;10.77;;;15.10;99.90;;;;;;2604477;46;20861;31
2022/09/15 04:50:53;;;;;;;15.48;11.10;;;15.10;99.90;;;;;;2586139;54;20924;31
2022/09/15 04:53:27;;;;;;;20.63;12.90;;;15.10;99.90;;;;;;2586251;54;20923;31
2022/09/15 04:56:06;;;;;;;21.92;11.80;;;15.10;99.90;;;;;;2604272;46;20822;31
2022/09/15 04:58:42;;;;;;;19.67;11.48;;;15.10;99.90;;;;;;2604570;46;20913;31
2022/09/15 05:01:20;;;;;;;18.30;11.27;;;15.10;99.90;;;;;;2585871;54;20097;31
2022/09/15 05:03:57;;;;;;;20.40;11.10;;;15.10;99.90;;;;;;2585962;54;20249;31
2022/09/15 05:06:31;;;;;;;18.90;10.90;;;15.10;99.90;;;;;;2585705;54;20085;31
2022/09/15 05:09:08;;;;;;;17.30;11.25;;;15.10;99.90;;;;;;2585859;54;20044;31
2022/09/15 05:11:44;;;;;;;16.03;8.57;;;15.10;99.90;;;;;;2584938;54;20771;31
2022/09/15 05:14:20;;;;;;;19.88;10.48;;;15.20;99.90;;;;;;2586086;54;20238;31
2022/09/15 05:16:57;;;;;;;15.57;9.80;;;15.20;99.90;;;;;;2597651;46;20037;31
2022/09/15 05:19:34;;;;;;;19.92;10.45;;;15.20;99.90;;;;;;2586045;54;20025;31
2022/09/15 05:22:08;;;;;;;14.27;7.78;;;15.20;99.90;;;;;;2585979;54;20054;31
2022/09/15 05:24:42;;;;;;;16.40;10.30;;;15.20;99.90;;;;;;2586298;54;22415;31
2022/09/15 05:27:15;;;;;;;15.63;9.75;;;15.20;99.90;;;;;;2585023;54;20716;31
2022/09/15 05:29:51;;;;;;;17.45;10.50;;;15.20;99.90;;;;;;2584947;54;20894;31
2022/09/15 05:32:47;;;;;;;17.07;9.70;;;15.30;99.90;;;;;;2684086;39;22425;31
2022/09/15 05:35:23;;;;;;;20.20;10.90;;;15.30;99.90;;;;;;2585911;54;20046;31
2022/09/15 05:37:56;;;;;;;14.40;9.82;;;15.30;99.90;;;;;;2584991;54;20990;31
2022/09/15 05:40:31;;;;;;;21.95;10.70;;;15.30;99.90;;;;;;2585802;54;20963;31
2022/09/15 05:43:10;;;;;;;26.10;11.20;;;15.30;99.90;;;;;;2586104;54;21340;31
2022/09/15 05:45:44;;;;;;;19.33;9.83;;;15.30;99.90;;;;;;2594197;46;20955;31
2022/09/15 05:48:23;;;;;;;15.50;8.75;;;15.40;99.90;;;;;;2584947;54;20128;31
2022/09/15 05:50:59;;;;;;;16.45;8.82;;;15.40;99.90;;;;;;2604226;46;20051;31
2022/09/15 05:53:32;;;;;;;;;;;15.40;99.90;;;;;;2586042;54;20901;31
2022/09/15 05:56:10;;;;;;;17.10;9.18;;;15.40;99.90;;;;;;2603229;46;20005;31
2022/09/15 05:58:44;;;;;;;14.67;9.00;;;15.40;99.90;;;;;;2584838;54;20839;31
2022/09/15 06:01:20;;;;;;;21.83;10.47;;;15.40;99.90;;;;;;2584803;54;20237;31
2022/09/15 06:03:56;;;;;;;17.85;11.30;;;15.40;99.90;;;;;;2684100;39;22395;31
2022/09/15 06:06:34;;;;;;;19.77;10.98;;;15.50;99.90;;;;;;2585849;54;20888;31
2022/09/15 06:09:08;;;;;;;21.67;10.25;;;15.50;99.90;;;;;;2585832;54;20775;31
2022/09/15 06:11:42;;;;;;;13.70;9.40;;;15.60;99.90;;;;;;2585552;54;20960;31
2022/09/15 06:14:16;;;;;;;17.80;11.05;;;15.70;99.90;;;;;;2585546;54;20838;31
2022/09/15 06:16:52;;;;;;;20.05;10.60;;;15.80;99.90;;;;;;2585186;54;20907;31
2022/09/15 06:19:28;;;;;;;20.47;9.70;;;15.90;99.90;;;;;;2585069;54;20936;31
2022/09/15 06:22:06;;;;;;;16.75;8.90;;;15.90;99.90;;;;;;2584740;54;20807;31
2022/09/15 06:24:40;;;;;;;15.88;8.48;;;15.90;99.90;;;;;;2585942;54;20026;31
2022/09/15 06:27:15;;;;;;;13.98;8.77;;;16.00;99.90;;;;;;2585720;54;20878;31
2022/09/15 06:29:51;;;;;;;12.63;7.47;;;16.00;99.90;;;;;;2585631;54;20029;31
2022/09/15 06:32:26;;;;;;;10.83;7.03;;;15.90;99.90;;;;;;2604091;46;20254;31
2022/09/15 06:35:06;;;;;;;14.65;6.30;;;15.90;99.90;;;;;;2604112;46;20029;31
2022/09/15 06:37:41;;;;;;;14.77;6.18;;;15.90;99.90;;;;;;2604478;46;22335;31
2022/09/15 06:40:17;;;;;;;10.33;6.17;;;16.10;99.90;;;;;;2604082;46;20765;31
2022/09/15 06:42:56;;;;;;;13.87;6.87;;;16.20;99.90;;;;;;2585186;54;21328;31
2022/09/15 06:45:30;;;;;;;15.25;6.20;;;16.70;99.90;;;;;;2586028;54;20026;31
2022/09/15 06:48:04;;;;;;;11.60;5.25;;;16.80;99.90;;;;;;2585717;54;20998;31
2022/09/15 06:51:00;;;;;;;14.73;5.85;;;17.00;99.90;;;;;;2585840;54;20922;31
2022/09/15 06:53:37;;;;;;;9.00;4.93;;;17.10;99.90;;;;;;2584721;54;20022;31
2022/09/15 06:56:11;;;;;;;14.07;5.13;;;17.20;99.90;;;;;;2585657;54;20030;31
2022/09/15 06:58:44;;;;;;;12.65;4.63;;;17.20;99.90;;;;;;2603587;46;20968;31
2022/09/15 07:01:22;;;;;;;7.15;4.50;;;17.20;99.90;;;;;;2585659;54;21159;31
2022/09/15 07:03:56;;;;;;;;;;;17.30;99.90;;;;;;2604228;46;19947;31
2022/09/15 07:06:34;;;;;;;8.73;5.25;;;17.20;99.90;;;;;;2683607;39;22259;31
2022/09/15 07:09:12;;;;;;;9.07;3.77;;;17.50;99.90;;;;;;2585363;54;20026;31
2022/09/15 07:11:47;;;;;;;10.65;4.05;;;17.70;99.90;;;;;;2585620;54;20061;31
2022/09/15 07:14:22;;;;;;;11.05;4.38;;;17.90;99.90;;;;;;2604058;46;20901;31
2022/09/15 07:16:56;;;;;;;10.52;3.97;;;18.10;99.90;;;;;;2585499;54;20937;31
2022/09/15 07:19:32;;;;;;;7.97;3.67;;;18.40;99.90;;;;;;2603682;46;20805;31
2022/09/15 07:22:11;;;;;;;12.30;3.78;;;18.90;99.90;;;;;;2584434;54;20027;31
2022/09/15 07:24:47;;;;;;;9.90;3.30;;;19.10;99.90;;;;;;2588980;46;20933;31
2022/09/15 07:27:25;;;;;;;8.77;3.40;;;19.50;99.90;;;;;;2585505;54;20821;31
2022/09/15 07:30:02;;;;;;;9.75;3.00;;;19.90;99.90;;;;;;2604312;46;20052;31
2022/09/15 07:32:36;;;;;;;10.50;4.07;;;20.10;99.90;;;;;;2585472;54;20089;31
2022/09/15 07:35:12;;;;;;;6.47;3.22;;;20.30;99.90;;;;;;2585196;54;20030;31
2022/09/15 07:37:50;;;;;;;8.73;3.47;;;20.60;99.90;;;;;;2585241;54;20146;31
2022/09/15 07:40:24;;;;;;;8.88;3.30;;;20.80;99.90;;;;;;2585535;54;20023;31
2022/09/15 07:43:00;;;;;;;9.85;3.58;;;20.90;99.90;;;;;;2585115;54;21032;31
2022/09/15 07:45:34;;;;;;;7.35;3.20;;;21.00;99.90;;;;;;2585666;54;20037;31
2022/09/15 07:48:11;;;;;;;6.75;2.45;;;21.20;99.90;;;;;;2585000;54;20186;31
2022/09/15 07:50:49;;;;;;;10.20;3.10;;;21.40;99.90;;;;;;2584619;54;20937;31
2022/09/15 07:53:27;;;;;;;9.65;3.47;;;21.70;99.90;;;;;;2585424;54;20053;31
2022/09/15 07:56:02;;;;;;;9.57;3.03;;;21.90;99.90;;;;;;2603855;46;20132;31
2022/09/15 07:58:38;;;;;;;10.43;3.72;;;21.70;99.90;;;;;;2603934;46;20036;31
2022/09/15 08:01:16;;;;;;;11.73;3.13;;;21.60;99.90;;;;;;2603704;46;20911;31
2022/09/15 08:03:53;;;;;;;7.83;2.70;;;21.60;99.90;;;;;;2603741;46;21161;31
2022/09/15 08:06:28;;;;;;;7.00;2.80;;;21.80;99.90;;;;;;2585490;54;20235;31
2022/09/15 08:09:05;;;;;;;5.72;2.65;;;21.90;99.90;;;;;;2683084;39;21126;31
2022/09/15 08:11:38;;;;;;;8.05;2.90;;;22.10;99.90;;;;;;2585950;54;22406;31
2022/09/15 08:14:16;;;;;;;8.32;2.80;;;22.10;99.90;;;;;;2603979;46;20949;31
2022/09/15 08:16:51;;;;;;;8.93;2.60;;;22.40;99.90;;;;;;2603786;46;20861;31
2022/09/15 08:19:29;;;;;;;9.27;2.65;;;22.50;99.90;;;;;;2584544;54;21006;31
2022/09/15 08:22:03;;;;;;;9.50;2.40;;;22.30;99.90;;;;;;2597149;46;20001;31
2022/09/15 08:24:43;;;;;;;7.70;2.25;;;22.10;99.90;;;;;;2585297;54;20880;31
2022/09/15 08:27:18;;;;;;;5.28;2.03;;;22.20;99.90;;;;;;2584251;54;20044;31
2022/09/15 08:29:53;;;;;;;;;;;22.30;99.90;;;;;;2585300;54;20923;31
2022/09/15 08:32:28;;;;;;;13.75;2.90;;;22.60;99.90;;;;;;2585252;54;19946;31
2022/09/15 08:35:01;;;;;;;5.55;2.40;;;22.70;99.90;;;;;;2603626;46;21010;31
2022/09/15 08:37:38;;;;;;;12.68;2.67;;;23.00;99.90;;;;;;2584889;54;20105;31
2022/09/15 08:40:23;;;;;;;6.27;1.93;;;23.00;99.90;;;;;;2585146;54;20030;31
2022/09/15 08:42:58;;;;;;;9.00;2.03;;;22.70;99.90;;;;;;2683233;39;21231;31
2022/09/15 08:45:40;;;;;;;5.30;2.40;;;22.50;99.90;;;;;;2584379;54;20101;31
2022/09/15 08:48:15;;;;;;;8.53;2.00;;;22.70;99.90;;;;;;2681830;39;21694;31
2022/09/15 08:50:51;;;;;;;7.50;2.50;;;22.90;99.90;;;;;;2584992;54;20093;31
2022/09/15 08:53:27;;;;;;;6.90;2.05;;;23.00;99.90;;;;;;2585335;54;20238;31
2022/09/15 08:56:06;;;;;;;6.85;2.20;;;23.10;99.90;;;;;;2585103;54;20933;31
2022/09/15 08:58:44;;;;;;;9.00;2.20;;;23.30;99.90;;;;;;2584986;54;20031;31
2022/09/15 09:01:30;;;;;;;6.30;1.95;;;23.30;99.90;;;;;;2585204;54;21228;31
2022/09/15 09:04:16;;;;;;;9.05;2.50;;;23.30;99.90;;;;;;2584799;54;20911;31
2022/09/15 09:06:53;;;;;;;8.53;1.90;;;23.30;99.90;;;;;;2585104;54;20026;31
2022/09/15 09:09:33;;;;;;;4.50;2.05;;;23.00;99.90;;;;;;2603666;47;20882;31
2022/09/15 09:12:21;;;;;;;6.95;2.05;;;22.70;99.90;;;;;;2585270;54;20049;31
2022/09/15 09:15:16;;;;;;;7.43;2.28;;;22.30;99.90;;;;;;2584929;54;20920;31
2022/09/15 09:21:25;;;;;;;7.00;2.35;;;21.90;99.90;;;;;;2584905;54;20026;31
2022/09/15 09:24:03;;;;;;;7.55;1.90;;;21.60;99.90;;;;;;2584493;54;20796;31
2022/09/15 09:26:37;;;;;;;8.45;2.30;;;21.80;99.90;;;;;;2585244;54;20844;31
2022/09/15 09:29:15;;;;;;;6.30;1.90;;;21.60;99.90;;;;;;2584863;54;20880;31
2022/09/15 09:31:50;;;;;;;4.90;1.70;;;21.60;99.90;;;;;;2585681;54;20040;31
2022/09/15 09:34:28;;;;;;;6.07;2.17;;;21.60;99.90;;;;;;2683466;39;21650;31
2022/09/15 09:37:04;;;;;;;8.10;2.20;;;21.70;99.90;;;;;;2585650;54;20034;31
2022/09/15 09:39:39;;;;;;;6.65;1.95;;;21.60;99.90;;;;;;2682557;39;21914;31
2022/09/15 09:42:13;;;;;;;;;;;21.50;99.90;;;;;;2585396;54;21163;31
2022/09/15 09:44:50;;;;;;;7.22;2.22;;;21.40;99.90;;;;;;2603337;46;19942;31
2022/09/15 09:47:28;;;;;;;6.65;2.30;;;21.20;99.90;;;;;;2584812;54;20027;31
2022/09/15 09:50:03;;;;;;;4.50;2.13;;;21.10;99.90;;;;;;2604067;46;20833;31
2022/09/15 09:52:37;;;;;;;4.60;2.55;;;21.00;99.90;;;;;;2598273;46;20037;31
2022/09/15 09:55:23;;;;;;;4.95;1.70;;;20.80;99.90;;;;;;2585866;54;20031;31
2022/09/15 09:58:00;;;;;;;5.78;1.50;;;20.80;99.90;;;;;;2585807;54;20038;31
2022/09/15 10:00:38;;;;;;;5.90;1.70;;;21.00;99.90;;;;;;2585672;54;20054;31
2022/09/15 10:03:14;;;;;;;4.47;1.50;;;21.00;99.90;;;;;;2604570;46;21092;31
2022/09/15 10:06:04;;;;;;;4.93;1.67;;;21.10;99.90;;;;;;2585497;54;20085;31
2022/09/15 10:08:55;;;;;;;6.17;1.97;;;21.30;99.90;;;;;;2585761;54;20030;31
2022/09/15 10:11:43;;;;;;;7.72;1.98;;;21.40;99.90;;;;;;2585850;54;20238;31
2022/09/15 10:14:27;;;;;;;3.90;1.60;;;21.40;99.90;;;;;;2585713;54;20862;31
2022/09/15 10:17:08;;;;;;;5.37;1.60;;;21.40;99.90;;;;;;2585522;54;20056;31
2022/09/15 10:19:47;;;;;;;6.35;1.80;;;21.40;99.90;;;;;;2604243;46;20026;31
2022/09/15 10:22:26;;;;;;;7.80;1.80;;;21.40;99.90;;;;;;2585343;54;20878;31
2022/09/15 10:25:02;;;;;;;7.63;2.10;;;21.30;99.90;;;;;;2772708;31;21655;31
2022/09/15 10:27:38;;;;;;;8.30;2.23;;;21.20;99.90;;;;;;2585514;54;20049;31
2022/09/15 10:30:19;;;;;;;9.35;2.65;;;21.10;99.90;;;;;;2585581;54;20031;31
2022/09/15 10:32:57;;;;;;;3.93;1.67;;;20.90;99.90;;;;;;2585505;54;20026;31
2022/09/15 10:35:29;;;;;;;7.53;2.13;;;20.70;99.90;;;;;;2584583;54;20034;31
2022/09/15 10:38:07;;;;;;;7.50;2.15;;;20.50;99.90;;;;;;2701974;39;21258;31
2022/09/15 10:40:43;;;;;;;9.10;2.17;;;20.40;99.90;;;;;;2585540;54;20967;31
2022/09/15 10:43:27;;;;;;;7.95;2.15;;;20.30;99.90;;;;;;2585170;54;21806;31
2022/09/15 10:46:06;;;;;;;4.68;2.08;;;20.20;99.90;;;;;;2585667;54;20062;31
2022/09/15 10:48:48;;;;;;;5.85;2.40;;;20.20;99.90;;;;;;2585028;54;21139;31
2022/09/15 10:51:37;;;;;;;8.00;2.08;;;20.20;99.90;;;;;;2701479;39;21767;31
2022/09/15 10:54:31;;;;;;;9.75;2.67;;;20.10;99.90;;;;;;2603580;46;20073;31
2022/09/15 10:59:44;;;;;;;6.00;2.13;;;20.10;99.90;;;;;;2585985;54;21138;31
2022/09/15 11:02:52;;;;;;;8.38;2.28;;;20.10;99.90;;;;;;2604223;46;20030;31
2022/09/15 11:05:35;;;;;;;9.57;2.13;;;20.30;99.90;;;;;;2585650;54;20794;31
2022/09/15 11:08:33;;;;;;;8.27;2.38;;;20.40;99.90;;;;;;2591194;46;20052;31
2022/09/15 11:11:14;;;;;;;10.85;2.55;;;20.50;99.90;;;;;;2682940;39;21569;31
2022/09/15 11:13:59;;;;;;;7.70;2.50;;;20.50;99.90;;;;;;2585599;54;20030;31
2022/09/15 11:16:36;;;;;;;8.68;2.30;;;20.40;99.90;;;;;;2585621;54;20058;31
2022/09/15 11:19:20;;;;;;;5.60;1.77;;;20.50;99.90;;;;;;2585631;54;20074;31
2022/09/15 11:21:58;;;;;;;8.53;2.23;;;20.60;99.90;;;;;;2753888;31;21772;31
2022/09/15 11:24:40;;;;;;;5.45;2.20;;;20.60;99.90;;;;;;2585339;54;20030;31
2022/09/15 11:27:18;;;;;;;11.10;2.50;;;20.70;99.90;;;;;;2585452;54;20919;31
2022/09/15 11:30:06;;;;;;;6.35;1.75;;;20.70;99.90;;;;;;2585552;54;21247;31
2022/09/15 11:32:45;;;;;;;5.40;1.95;;;20.80;99.90;;;;;;2585254;54;20966;31
2022/09/15 11:35:39;;;;;;;6.82;2.13;;;20.80;99.90;;;;;;2585293;54;20941;31
2022/09/15 11:38:34;;;;;;;5.75;2.40;;;20.80;99.90;;;;;;2772487;31;21697;31
2022/09/15 11:41:16;;;;;;;7.57;2.38;;;20.70;99.90;;;;;;2585289;54;20825;31
2022/09/15 11:43:59;;;;;;;7.90;2.10;;;20.60;99.90;;;;;;2584830;54;20163;31
2022/09/15 11:46:43;;;;;;;9.40;2.55;;;20.60;99.90;;;;;;2683040;39;21604;31
2022/09/15 11:49:20;;;;;;;8.38;2.05;;;20.60;99.90;;;;;;2585433;54;20929;31
2022/09/15 11:51:58;;;;;;;6.53;2.38;;;20.60;99.90;;;;;;2585794;54;20804;31
2022/09/15 11:54:41;;;;;;;5.30;2.33;;;20.70;99.90;;;;;;2584583;54;20033;31
2022/09/15 11:57:18;;;;;;;5.40;1.90;;;20.70;99.90;;;;;;2585608;54;21342;31
2022/09/15 11:59:54;;;;;;;6.07;2.22;;;20.60;99.90;;;;;;2584503;54;20919;31
2022/09/15 12:02:34;;;;;;;8.45;2.30;;;20.60;99.90;;;;;;2584329;54;20896;31
2022/09/15 12:05:14;;;;;;;5.45;1.80;;;20.70;99.90;;;;;;2603579;46;20940;31
2022/09/15 12:07:50;;;;;;;10.43;2.58;;;20.80;99.90;;;;;;2584349;54;20762;31
2022/09/15 12:10:30;;;;;;;8.30;2.30;;;20.90;99.90;;;;;;2585369;54;20053;31
2022/09/15 12:13:05;;;;;;;11.00;2.33;;;20.90;99.90;;;;;;2585376;54;20053;31
2022/09/15 12:15:43;;;;;;;6.95;1.95;;;20.80;99.90;;;;;;2682982;39;20520;31
2022/09/15 12:18:22;;;;;;;7.88;2.55;;;20.80;99.90;;;;;;2585335;54;20038;31
2022/09/15 12:21:19;;;;;;;8.47;2.80;;;20.80;99.90;;;;;;2584995;54;20952;31
2022/09/15 12:23:58;;;;;;;6.90;2.20;;;20.70;99.90;;;;;;2585145;54;20249;31
2022/09/15 12:26:36;;;;;;;6.95;2.25;;;20.60;99.90;;;;;;2585287;54;20030;31
2022/09/15 12:29:40;;;;;;;6.88;2.35;;;20.60;99.90;;;;;;2585107;54;20033;31
2022/09/15 12:32:20;;;;;;;5.60;2.30;;;20.40;99.90;;;;;;2603485;46;20118;31
2022/09/15 12:34:59;;;;;;;4.75;2.20;;;20.50;99.90;;;;;;2584542;54;20110;31
2022/09/15 12:37:41;;;;;;;7.85;2.35;;;20.30;99.90;;;;;;2602902;46;20065;31
2022/09/15 12:40:35;;;;;;;6.70;2.65;;;20.30;99.90;;;;;;2603702;46;20037;31
2022/09/15 12:43:22;;;;;;;7.80;2.50;;;20.20;99.90;;;;;;2585027;54;20903;31
2022/09/15 12:45:57;;;;;;;6.63;2.37;;;20.30;99.90;;;;;;2585533;54;20239;31
2022/09/15 12:48:30;;;;;;;8.25;2.45;;;20.20;99.90;;;;;;2585032;54;20089;31
2022/09/15 12:51:09;;;;;;;5.43;2.17;;;20.20;99.90;;;;;;2593608;47;20873;31
2022/09/15 12:53:49;;;;;;;8.30;3.37;;;20.20;99.90;;;;;;2584153;54;20297;31
2022/09/15 12:56:26;;;;;;;7.10;2.72;;;20.10;99.90;;;;;;2590647;47;20830;31
2022/09/15 12:59:05;;;;;;;9.82;3.10;;;20.10;99.90;;;;;;2594426;47;20027;31
2022/09/15 13:01:49;;;;;;;7.07;3.13;;;20.10;99.90;;;;;;2585170;54;21041;31
2022/09/15 13:04:56;;;;;;;9.60;3.40;;;20.10;99.90;;;;;;2585287;54;20954;31
2022/09/15 13:07:51;;;;;;;7.25;3.05;;;20.00;99.90;;;;;;2586083;54;22529;31
2022/09/15 13:10:38;;;;;;;9.73;2.72;;;19.90;99.90;;;;;;2586051;54;20891;31
2022/09/15 13:13:25;;;;;;;;;;;20.00;99.90;;;;;;2604038;46;21021;31
2022/09/15 13:16:05;;;;;;;8.15;3.90;;;20.00;99.90;;;;;;2604533;46;21092;31
2022/09/15 13:18:39;;;;;;;6.35;3.20;;;20.00;99.90;;;;;;2604372;46;20935;31
2022/09/15 13:21:17;;;;;;;12.90;3.30;;;20.10;99.90;;;;;;2585880;54;20108;31
2022/09/15 13:23:52;;;;;;;6.75;3.17;;;20.20;99.90;;;;;;2586090;54;20925;31
2022/09/15 13:26:27;;;;;;;7.50;2.65;;;20.10;99.90;;;;;;2586020;54;19934;31
2022/09/15 13:29:05;;;;;;;6.27;2.77;;;20.20;99.90;;;;;;2586103;54;21221;31
2022/09/15 13:31:47;;;;;;;7.80;2.20;;;20.20;99.90;;;;;;2586003;54;20030;31
2022/09/15 13:34:33;;;;;;;8.38;2.55;;;20.30;99.90;;;;;;2585200;54;20059;31
2022/09/15 13:37:46;;;;;;;8.23;2.50;;;20.30;99.90;;;;;;2585756;54;20056;31
2022/09/15 13:41:09;;;;;;;5.40;2.00;;;20.30;99.90;;;;;;2598309;46;20768;31
2022/09/15 13:44:16;;;;;;;8.00;2.20;;;20.30;99.90;;;;;;2585440;54;20027;31
2022/09/15 13:49:45;;;;;;;7.30;2.55;;;20.30;99.90;;;;;;2585569;54;19941;31
2022/09/15 13:52:44;;;;;;;8.53;3.03;;;20.20;99.90;;;;;;2585595;54;20057;31
2022/09/15 13:55:25;;;;;;;8.55;3.30;;;20.10;99.90;;;;;;2585896;54;20030;31
2022/09/15 13:58:00;;;;;;;5.85;3.08;;;19.90;99.90;;;;;;2585274;54;19978;31
2022/09/15 14:00:59;;;;;;;7.15;3.25;;;19.80;99.90;;;;;;2585974;54;20899;31
2022/09/15 14:03:38;;;;;;;5.78;2.63;;;19.70;99.90;;;;;;2585943;54;20026;31